createdAt,value
2023-02-14T00:00:07.054Z,4.82
2023-02-14T00:01:12.407Z,4.03
2023-02-14T00:02:14.911Z,4.47
2023-02-14T00:03:17.586Z,3.65
2023-02-14T00:04:20.772Z,4.10
2023-02-14T00:05:23.636Z,4.07
2023-02-14T00:06:26.153Z,4.60
2023-02-14T00:07:28.651Z,3.50
2023-02-14T00:08:31.035Z,4.13
2023-02-14T00:09:33.490Z,4.15
2023-02-14T00:10:36.036Z,4.32
2023-02-14T00:11:38.929Z,3.90
2023-02-14T00:12:41.373Z,3.85
2023-02-14T00:14:03.822Z,3.90
2023-02-14T00:15:25.327Z,4.05
2023-02-14T00:16:27.839Z,4.40
2023-02-14T00:17:30.359Z,4.60
2023-02-14T00:18:51.736Z,4.93
2023-02-14T00:19:54.151Z,4.65
2023-02-14T00:21:00.594Z,4.63
2023-02-14T00:22:04.157Z,4.85
2023-02-14T00:23:06.767Z,4.15
2023-02-14T00:24:21.279Z,4.97
2023-02-14T00:25:23.798Z,4.63
2023-02-14T00:26:26.288Z,4.53
2023-02-14T00:27:28.665Z,4.15
2023-02-14T00:28:31.130Z,4.53
2023-02-14T00:29:33.708Z,6.20
2023-02-14T00:30:37.401Z,4.20
2023-02-14T00:31:41.253Z,4.90
2023-02-14T00:32:43.792Z,4.97
2023-02-14T00:33:46.359Z,4.78
2023-02-14T00:34:48.876Z,4.88
2023-02-14T00:35:51.411Z,4.50
2023-02-14T00:36:53.917Z,5.75
2023-02-14T00:37:56.415Z,4.57
2023-02-14T00:38:59.089Z,4.38
2023-02-14T00:40:01.517Z,5.10
2023-02-14T00:41:05.141Z,5.63
2023-02-14T00:42:07.756Z,5.05
2023-02-14T00:43:10.370Z,4.60
2023-02-14T00:44:14.042Z,5.07
2023-02-14T00:45:19.039Z,4.82
2023-02-14T00:46:23.221Z,4.75
2023-02-14T00:47:25.877Z,4.60
2023-02-14T00:48:28.352Z,5.35
2023-02-14T00:49:30.885Z,4.78
2023-02-14T00:50:34.561Z,4.95
2023-02-14T00:51:37.217Z,5.63
2023-02-14T00:52:39.684Z,5.45
2023-02-14T00:53:42.369Z,5.90
2023-02-14T00:54:44.880Z,4.57
2023-02-14T00:55:49.596Z,4.93
2023-02-14T00:56:52.663Z,5.13
2023-02-14T00:57:55.118Z,5.00
2023-02-14T00:58:57.645Z,4.82
2023-02-14T01:00:00.159Z,4.63
2023-02-14T01:01:02.793Z,4.65
2023-02-14T01:02:05.580Z,5.40
2023-02-14T01:03:08.088Z,5.60
2023-02-14T01:04:10.883Z,5.47
2023-02-14T01:05:14.336Z,4.90
2023-02-14T01:06:17.195Z,5.38
2023-02-14T01:07:19.676Z,5.43
2023-02-14T01:08:22.088Z,5.90
2023-02-14T01:09:24.589Z,5.82
2023-02-14T01:10:27.067Z,5.65
2023-02-14T01:11:30.407Z,5.47
2023-02-14T01:12:32.887Z,5.47
2023-02-14T01:13:36.797Z,5.90
2023-02-14T01:14:39.483Z,5.38
2023-02-14T01:15:45.632Z,5.43
2023-02-14T01:16:48.339Z,5.70
2023-02-14T01:17:52.235Z,5.68
2023-02-14T01:18:59.511Z,5.15
2023-02-14T01:20:02.019Z,5.85
2023-02-14T01:21:14.120Z,6.60
2023-02-14T01:22:16.660Z,5.13
2023-02-14T01:23:19.782Z,5.93
2023-02-14T01:24:25.150Z,6.28
2023-02-14T01:25:28.157Z,6.10
2023-02-14T01:26:31.061Z,7.40
2023-02-14T01:27:36.832Z,5.25
2023-02-14T01:28:39.625Z,5.63
2023-02-14T01:29:43.930Z,5.97
2023-02-14T01:30:47.510Z,5.40
2023-02-14T01:31:50.112Z,4.95
2023-02-14T01:32:53.082Z,5.88
2023-02-14T01:33:57.212Z,4.88
2023-02-14T01:35:00.135Z,5.43
2023-02-14T01:36:02.809Z,5.03
2023-02-14T01:37:05.471Z,6.20
2023-02-14T01:38:07.920Z,6.35
2023-02-14T01:39:15.179Z,5.57
2023-02-14T01:40:20.837Z,5.75
2023-02-14T01:41:24.304Z,5.65
2023-02-14T01:42:29.000Z,5.70
2023-02-14T01:43:31.489Z,5.40
2023-02-14T01:44:35.654Z,4.43
2023-02-14T01:45:38.275Z,6.00
2023-02-14T01:46:42.143Z,5.68
2023-02-14T01:47:48.690Z,5.25
2023-02-14T01:48:54.603Z,5.43
2023-02-14T01:50:03.442Z,5.68
2023-02-14T01:51:06.036Z,5.15
2023-02-14T01:52:15.036Z,5.13
2023-02-14T01:53:22.052Z,5.80
2023-02-14T01:54:26.525Z,5.88
2023-02-14T01:55:33.131Z,6.03
2023-02-14T01:56:40.188Z,5.72
2023-02-14T01:57:48.087Z,6.00
2023-02-14T01:58:55.380Z,6.07
2023-02-14T02:00:19.844Z,6.22
2023-02-14T02:01:23.221Z,6.28
2023-02-14T02:02:25.795Z,5.78
2023-02-14T02:03:37.889Z,6.97
2023-02-14T02:04:44.883Z,5.72
2023-02-14T02:05:54.947Z,5.97
2023-02-14T02:07:04.947Z,6.13
2023-02-14T02:08:07.417Z,6.25
2023-02-14T02:09:22.385Z,5.32
2023-02-14T02:10:25.030Z,6.05
2023-02-14T02:11:27.938Z,7.10
2023-02-14T02:12:31.079Z,5.75
2023-02-14T02:13:34.159Z,6.05
2023-02-14T02:14:36.713Z,4.82
2023-02-14T02:15:56.846Z,6.03
2023-02-14T02:17:17.386Z,5.55
2023-02-14T02:19:03.641Z,5.65
2023-02-14T02:20:24.727Z,5.88
2023-02-14T02:21:50.799Z,6.45
2023-02-14T02:23:15.636Z,5.22
2023-02-14T02:24:25.120Z,5.78
2023-02-14T02:25:55.191Z,5.45
2023-02-14T02:27:26.114Z,6.35
2023-02-14T02:29:58.556Z,5.50
2023-02-14T02:31:35.380Z,5.95
2023-02-14T02:33:01.887Z,6.15
2023-02-14T02:34:32.277Z,5.47
2023-02-14T02:36:02.133Z,5.80
2023-02-14T02:37:36.396Z,5.85
2023-02-14T02:38:46.814Z,6.25
2023-02-14T02:39:55.022Z,5.70
2023-02-14T02:41:15.541Z,6.95
2023-02-14T02:42:30.191Z,6.88
2023-02-14T02:43:52.242Z,5.75
2023-02-14T02:45:03.246Z,5.82
2023-02-14T02:46:30.398Z,6.05
2023-02-14T02:47:54.129Z,5.40
2023-02-14T02:49:04.980Z,6.30
2023-02-14T02:51:58.982Z,6.07
2023-02-14T02:53:08.267Z,6.65
2023-02-14T02:54:24.516Z,5.88
2023-02-14T02:56:01.884Z,7.25
2023-02-14T02:57:12.944Z,7.07
2023-02-14T02:58:15.554Z,6.38
2023-02-14T02:59:20.890Z,6.22
2023-02-14T03:00:28.637Z,6.53
2023-02-14T03:01:34.650Z,6.38
2023-02-14T03:03:16.454Z,7.05
2023-02-14T03:04:38.357Z,7.10
2023-02-14T03:05:41.304Z,6.43
2023-02-14T03:06:45.646Z,6.47
2023-02-14T03:07:49.525Z,6.22
2023-02-14T03:08:51.998Z,6.68
2023-02-14T03:09:57.713Z,6.45
2023-02-14T03:11:02.389Z,7.10
2023-02-14T03:12:22.186Z,7.07
2023-02-14T03:13:40.129Z,6.70
2023-02-14T03:15:17.945Z,7.25
2023-02-14T03:16:47.035Z,6.05
2023-02-14T03:18:13.936Z,6.63
2023-02-14T03:19:29.133Z,5.85
2023-02-14T03:20:52.328Z,6.68
2023-02-14T03:22:03.816Z,6.57
2023-02-14T03:23:21.622Z,6.80
2023-02-14T03:24:56.671Z,6.55
2023-02-14T03:26:17.919Z,7.40
2023-02-14T03:28:47.046Z,6.65
2023-02-14T03:29:49.821Z,7.15
2023-02-14T03:31:29.536Z,6.53
2023-02-14T03:32:40.113Z,7.30
2023-02-14T03:35:14.857Z,6.22
2023-02-14T03:36:22.001Z,6.15
2023-02-14T03:37:34.633Z,7.78
2023-02-14T03:38:51.580Z,7.80
2023-02-14T03:40:19.560Z,6.45
2023-02-14T03:41:27.381Z,7.82
2023-02-14T03:42:36.641Z,7.15
2023-02-14T03:44:04.589Z,7.68
2023-02-14T03:45:10.690Z,7.80
2023-02-14T03:46:29.236Z,6.95
2023-02-14T03:47:33.420Z,7.45
2023-02-14T03:48:36.879Z,6.82
2023-02-14T03:49:43.686Z,7.95
2023-02-14T03:50:47.037Z,6.30
2023-02-14T03:51:51.413Z,7.15
2023-02-14T03:52:54.343Z,7.10
2023-02-14T03:53:58.209Z,7.88
2023-02-14T03:55:02.291Z,7.05
2023-02-14T03:56:10.521Z,7.78
2023-02-14T03:57:21.764Z,6.25
2023-02-14T03:58:28.603Z,7.47
2023-02-14T03:59:31.145Z,7.82
2023-02-14T04:00:37.733Z,7.88
2023-02-14T04:01:48.540Z,7.38
2023-02-14T04:02:57.327Z,7.10
2023-02-14T04:04:00.195Z,7.88
2023-02-14T04:05:07.920Z,7.47
2023-02-14T04:06:10.962Z,6.70
2023-02-14T04:07:15.910Z,7.07
2023-02-14T04:08:24.333Z,7.13
2023-02-14T04:09:27.025Z,6.70
2023-02-14T04:10:29.571Z,6.82
2023-02-14T04:11:35.115Z,6.55
2023-02-14T04:12:38.332Z,7.15
2023-02-14T04:13:40.960Z,7.43
2023-02-14T04:14:43.626Z,7.40
2023-02-14T04:15:46.208Z,7.03
2023-02-14T04:17:07.572Z,6.63
2023-02-14T04:18:28.971Z,7.30
2023-02-14T04:19:31.487Z,7.10
2023-02-14T04:20:34.292Z,7.28
2023-02-14T04:21:36.933Z,8.02
2023-02-14T04:22:39.451Z,7.30
2023-02-14T04:23:42.034Z,7.03
2023-02-14T04:24:44.662Z,6.68
2023-02-14T04:25:47.415Z,6.97
2023-02-14T04:27:10.637Z,8.18
2023-02-14T04:28:13.824Z,7.00
2023-02-14T04:29:16.249Z,7.18
2023-02-14T04:30:21.006Z,7.38
2023-02-14T04:31:23.574Z,7.70
2023-02-14T04:32:26.234Z,7.55
2023-02-14T04:33:29.185Z,7.32
2023-02-14T04:34:31.739Z,6.75
2023-02-14T04:35:35.289Z,7.43
2023-02-14T04:36:37.779Z,6.38
2023-02-14T04:37:40.358Z,7.18
2023-02-14T04:38:42.894Z,7.07
2023-02-14T04:39:45.679Z,6.95
2023-02-14T04:40:51.920Z,7.35
2023-02-14T04:41:54.448Z,6.82
2023-02-14T04:42:57.226Z,7.25
2023-02-14T04:43:59.722Z,7.95
2023-02-14T04:45:04.228Z,8.07
2023-02-14T04:46:07.082Z,6.72
2023-02-14T04:47:09.768Z,6.57
2023-02-14T04:48:12.326Z,7.85
2023-02-14T04:49:14.989Z,7.55
2023-02-14T04:50:17.893Z,7.50
2023-02-14T04:51:20.469Z,7.38
2023-02-14T04:52:22.986Z,6.78
2023-02-14T04:53:25.430Z,6.50
2023-02-14T04:54:28.263Z,7.13
2023-02-14T04:55:30.916Z,6.38
2023-02-14T04:56:33.448Z,7.00
2023-02-14T04:57:36.037Z,6.70
2023-02-14T04:58:38.611Z,6.78
2023-02-14T04:59:41.070Z,7.20
2023-02-14T05:00:43.760Z,7.15
2023-02-14T05:01:46.338Z,6.82
2023-02-14T05:02:48.790Z,5.93
2023-02-14T05:03:51.300Z,6.63
2023-02-14T05:04:53.855Z,7.00
2023-02-14T05:05:56.349Z,7.57
2023-02-14T05:06:58.797Z,6.43
2023-02-14T05:08:01.310Z,7.07
2023-02-14T05:09:04.080Z,7.18
2023-02-14T05:10:07.053Z,7.45
2023-02-14T05:11:09.619Z,6.20
2023-02-14T05:12:12.092Z,6.20
2023-02-14T05:13:14.678Z,6.43
2023-02-14T05:14:17.316Z,7.03
2023-02-14T05:15:19.892Z,7.65
2023-02-14T05:16:23.214Z,6.63
2023-02-14T05:17:25.716Z,7.07
2023-02-14T05:18:28.186Z,7.57
2023-02-14T05:19:30.689Z,6.60
2023-02-14T05:20:33.249Z,7.50
2023-02-14T05:21:35.832Z,6.75
2023-02-14T05:22:38.549Z,7.30
2023-02-14T05:23:41.395Z,7.22
2023-02-14T05:24:43.847Z,8.15
2023-02-14T05:25:48.514Z,7.63
2023-02-14T05:26:50.994Z,7.65
2023-02-14T05:27:53.475Z,6.78
2023-02-14T05:28:56.146Z,7.88
2023-02-14T05:29:58.688Z,8.00
2023-02-14T05:31:01.878Z,6.45
2023-02-14T05:32:05.117Z,7.13
2023-02-14T05:33:07.779Z,6.53
2023-02-14T05:34:10.270Z,7.78
2023-02-14T05:35:12.742Z,6.80
2023-02-14T05:36:15.417Z,7.10
2023-02-14T05:37:17.960Z,6.50
2023-02-14T05:38:20.681Z,6.65
2023-02-14T05:39:23.078Z,7.43
2023-02-14T05:41:27.206Z,8.02
2023-02-14T05:42:29.633Z,7.75
2023-02-14T05:43:32.599Z,7.90
2023-02-14T05:44:35.030Z,8.30
2023-02-14T05:45:37.953Z,7.43
2023-02-14T05:46:40.379Z,6.82
2023-02-14T05:47:42.867Z,7.53
2023-02-14T05:48:45.930Z,7.18
2023-02-14T05:49:48.479Z,6.80
2023-02-14T05:50:51.003Z,7.22
2023-02-14T05:51:53.400Z,7.63
2023-02-14T05:52:56.603Z,7.45
2023-02-14T05:54:00.205Z,7.68
2023-02-14T05:55:02.897Z,7.97
2023-02-14T05:56:05.633Z,8.15
2023-02-14T05:57:08.121Z,7.80
2023-02-14T05:58:12.245Z,7.82
2023-02-14T05:59:14.827Z,8.63
2023-02-14T06:00:18.060Z,8.50
2023-02-14T06:01:20.469Z,7.03
2023-02-14T06:02:23.103Z,7.40
2023-02-14T06:03:25.954Z,8.02
2023-02-14T06:04:28.517Z,7.25
2023-02-14T06:05:31.069Z,7.13
2023-02-14T06:06:36.269Z,6.95
2023-02-14T06:07:39.227Z,7.18
2023-02-14T06:08:41.664Z,8.05
2023-02-14T06:09:44.171Z,8.32
2023-02-14T06:10:47.060Z,7.68
2023-02-14T06:11:49.659Z,7.53
2023-02-14T06:12:53.628Z,8.18
2023-02-14T06:13:56.094Z,7.57
2023-02-14T06:14:58.472Z,7.78
2023-02-14T06:16:00.987Z,6.78
2023-02-14T06:17:03.563Z,6.82
2023-02-14T06:18:06.510Z,6.40
2023-02-14T06:19:09.027Z,7.88
2023-02-14T06:20:12.106Z,7.60
2023-02-14T06:21:14.597Z,7.90
2023-02-14T06:22:17.175Z,7.43
2023-02-14T06:23:19.628Z,8.05
2023-02-14T06:24:22.271Z,7.57
2023-02-14T06:25:25.297Z,8.00
2023-02-14T06:26:28.263Z,8.35
2023-02-14T06:27:31.324Z,7.55
2023-02-14T06:28:33.772Z,7.45
2023-02-14T06:29:36.176Z,7.50
2023-02-14T06:30:38.848Z,6.82
2023-02-14T06:31:41.657Z,8.43
2023-02-14T06:32:44.397Z,6.97
2023-02-14T06:33:46.883Z,7.40
2023-02-14T06:34:49.388Z,6.97
2023-02-14T06:35:53.975Z,6.88
2023-02-14T06:36:56.462Z,11.13
2023-02-14T06:37:59.349Z,10.20
2023-02-14T06:39:01.818Z,9.48
2023-02-14T06:40:04.841Z,8.88
2023-02-14T06:41:08.345Z,7.55
2023-02-14T06:42:10.853Z,8.02
2023-02-14T06:43:13.400Z,8.75
2023-02-14T06:44:15.860Z,7.22
2023-02-14T06:45:18.484Z,7.78
2023-02-14T06:46:20.960Z,7.53
2023-02-14T06:47:23.614Z,7.00
2023-02-14T06:48:26.146Z,7.85
2023-02-14T06:49:28.699Z,7.22
2023-02-14T06:50:31.126Z,7.25
2023-02-14T06:51:33.606Z,7.88
2023-02-14T06:52:36.267Z,7.68
2023-02-14T06:53:38.755Z,8.30
2023-02-14T06:54:41.351Z,8.27
2023-02-14T06:55:43.958Z,7.53
2023-02-14T06:56:46.516Z,7.90
2023-02-14T06:57:49.050Z,8.38
2023-02-14T06:58:51.540Z,7.65
2023-02-14T06:59:54.334Z,8.77
2023-02-14T07:00:57.661Z,8.43
2023-02-14T07:02:00.257Z,7.85
2023-02-14T07:03:02.754Z,8.20
2023-02-14T07:04:05.358Z,9.00
2023-02-14T07:05:07.993Z,9.60
2023-02-14T07:06:10.580Z,7.80
2023-02-14T07:07:13.062Z,8.82
2023-02-14T07:08:16.117Z,8.20
2023-02-14T07:09:18.669Z,8.35
2023-02-14T07:10:21.277Z,7.28
2023-02-14T07:11:23.781Z,7.65
2023-02-14T07:12:26.340Z,6.70
2023-02-14T07:13:29.150Z,7.32
2023-02-14T07:14:31.600Z,7.30
2023-02-14T07:15:34.179Z,7.97
2023-02-14T07:16:36.636Z,7.68
2023-02-14T07:17:39.572Z,7.72
2023-02-14T07:18:42.051Z,7.38
2023-02-14T07:19:44.663Z,8.05
2023-02-14T07:20:47.128Z,7.55
2023-02-14T07:21:49.660Z,7.60
2023-02-14T07:22:52.246Z,9.15
2023-02-14T07:23:54.633Z,7.00
2023-02-14T07:24:57.059Z,7.80
2023-02-14T07:25:59.504Z,8.32
2023-02-14T07:27:01.981Z,6.75
2023-02-14T07:28:05.006Z,7.68
2023-02-14T07:29:07.520Z,8.52
2023-02-14T07:30:11.076Z,7.55
2023-02-14T07:31:13.739Z,7.88
2023-02-14T07:32:16.667Z,8.60
2023-02-14T07:33:19.283Z,7.82
2023-02-14T07:34:21.756Z,7.68
2023-02-14T07:35:24.358Z,9.20
2023-02-14T07:36:26.986Z,9.75
2023-02-14T07:37:29.489Z,8.18
2023-02-14T07:38:31.935Z,8.35
2023-02-14T07:39:34.487Z,8.38
2023-02-14T07:40:36.934Z,7.88
2023-02-14T07:41:39.520Z,9.10
2023-02-14T07:42:55.286Z,8.43
2023-02-14T07:43:57.831Z,8.27
2023-02-14T07:45:04.846Z,7.80
2023-02-14T07:46:09.411Z,8.40
2023-02-14T07:47:13.201Z,9.85
2023-02-14T07:48:15.717Z,9.35
2023-02-14T07:49:18.212Z,8.55
2023-02-14T07:50:22.377Z,9.07
2023-02-14T07:51:24.888Z,10.32
2023-02-14T07:52:27.533Z,9.15
2023-02-14T07:53:30.137Z,8.82
2023-02-14T07:54:33.030Z,8.35
2023-02-14T07:55:35.753Z,8.68
2023-02-14T07:56:38.265Z,8.05
2023-02-14T07:57:40.879Z,8.02
2023-02-14T07:58:43.407Z,8.35
2023-02-14T07:59:45.969Z,8.38
2023-02-14T08:00:48.581Z,9.02
2023-02-14T08:01:51.894Z,8.00
2023-02-14T08:02:56.177Z,8.40
2023-02-14T08:03:58.624Z,9.43
2023-02-14T08:05:01.229Z,10.18
2023-02-14T08:06:03.928Z,12.43
2023-02-14T08:07:06.362Z,14.60
2023-02-14T08:08:08.950Z,12.02
2023-02-14T08:09:11.385Z,12.02
2023-02-14T08:10:14.324Z,11.65
2023-02-14T08:11:36.975Z,11.55
2023-02-14T08:12:58.115Z,10.15
2023-02-14T08:14:00.896Z,8.57
2023-02-14T08:15:21.920Z,10.48
2023-02-14T08:16:24.469Z,9.80
2023-02-14T08:17:27.133Z,9.35
2023-02-14T08:18:29.635Z,9.25
2023-02-14T08:19:32.273Z,9.98
2023-02-14T08:20:34.801Z,9.50
2023-02-14T08:21:37.607Z,10.02
2023-02-14T08:22:40.117Z,9.90
2023-02-14T08:23:42.806Z,10.85
2023-02-14T08:24:45.271Z,10.23
2023-02-14T08:25:51.978Z,10.00
2023-02-14T08:26:54.547Z,9.50
2023-02-14T08:27:57.194Z,8.45
2023-02-14T08:29:01.753Z,9.43
2023-02-14T08:30:04.447Z,8.93
2023-02-14T08:31:07.171Z,9.02
2023-02-14T08:32:09.758Z,9.25
2023-02-14T08:33:12.269Z,10.02
2023-02-14T08:34:16.046Z,10.45
2023-02-14T08:35:18.699Z,10.52
2023-02-14T08:36:21.271Z,8.68
2023-02-14T08:37:23.825Z,9.00
2023-02-14T08:38:26.619Z,9.60
2023-02-14T08:39:29.215Z,8.38
2023-02-14T08:40:31.939Z,10.68
2023-02-14T08:41:35.675Z,12.68
2023-02-14T08:42:38.249Z,11.68
2023-02-14T08:43:40.996Z,10.30
2023-02-14T08:44:43.471Z,10.30
2023-02-14T08:45:46.055Z,10.50
2023-02-14T08:46:48.578Z,12.00
2023-02-14T08:47:51.280Z,11.10
2023-02-14T08:48:54.935Z,9.95
2023-02-14T08:49:57.588Z,9.25
2023-02-14T08:51:00.497Z,10.18
2023-02-14T08:52:03.214Z,9.25
2023-02-14T08:53:10.444Z,9.45
2023-02-14T08:54:13.069Z,9.55
2023-02-14T08:55:15.644Z,10.00
2023-02-14T08:56:19.069Z,10.02
2023-02-14T08:57:21.495Z,8.75
2023-02-14T08:58:23.931Z,8.95
2023-02-14T08:59:26.490Z,9.05
2023-02-14T09:00:29.436Z,9.52
2023-02-14T09:01:32.075Z,9.52
2023-02-14T09:02:34.739Z,11.48
2023-02-14T09:03:38.518Z,9.65
2023-02-14T09:04:41.491Z,9.48
2023-02-14T09:05:44.190Z,9.07
2023-02-14T09:06:46.965Z,10.10
2023-02-14T09:07:49.984Z,9.23
2023-02-14T09:08:55.292Z,10.00
2023-02-14T09:09:57.831Z,10.95
2023-02-14T09:11:00.575Z,9.57
2023-02-14T09:12:07.249Z,10.35
2023-02-14T09:13:09.812Z,11.45
2023-02-14T09:14:12.319Z,10.75
2023-02-14T09:15:15.022Z,10.10
2023-02-14T09:16:18.599Z,10.23
2023-02-14T09:17:21.272Z,8.90
2023-02-14T09:18:23.808Z,9.35
2023-02-14T09:19:26.429Z,9.15
2023-02-14T09:20:29.129Z,9.80
2023-02-14T09:21:31.957Z,9.68
2023-02-14T09:22:34.892Z,10.88
2023-02-14T09:23:37.748Z,9.75
2023-02-14T09:24:41.521Z,9.88
2023-02-14T09:25:43.996Z,8.75
2023-02-14T09:26:46.507Z,9.10
2023-02-14T09:27:49.016Z,8.70
2023-02-14T09:28:51.600Z,9.25
2023-02-14T09:29:54.151Z,9.23
2023-02-14T09:30:57.547Z,8.80
2023-02-14T09:32:01.453Z,9.10
2023-02-14T09:33:05.387Z,8.23
2023-02-14T09:34:07.889Z,7.50
2023-02-14T09:35:10.579Z,7.82
2023-02-14T09:36:31.772Z,7.88
2023-02-14T09:37:34.199Z,6.63
2023-02-14T09:38:36.666Z,7.20
2023-02-14T09:39:39.698Z,7.05
2023-02-14T09:40:42.769Z,6.60
2023-02-14T09:42:04.507Z,6.57
2023-02-14T09:43:23.434Z,7.28
2023-02-14T09:44:39.660Z,6.80
2023-02-14T09:45:43.852Z,6.85
2023-02-14T09:46:51.025Z,7.75
2023-02-14T09:48:11.497Z,11.18
2023-02-14T09:49:15.543Z,10.10
2023-02-14T09:50:42.743Z,9.50
2023-02-14T09:51:50.769Z,8.60
2023-02-14T09:52:58.633Z,8.82
2023-02-14T09:54:13.674Z,8.23
2023-02-14T09:55:17.850Z,7.18
2023-02-14T09:56:25.577Z,8.15
2023-02-14T09:57:46.690Z,7.13
2023-02-14T09:59:14.347Z,7.32
2023-02-14T10:00:19.004Z,7.88
2023-02-14T10:01:38.799Z,9.15
2023-02-14T10:03:08.329Z,7.82
2023-02-14T10:04:34.242Z,8.02
2023-02-14T10:05:41.276Z,8.38
2023-02-14T10:06:55.114Z,8.75
2023-02-14T10:08:16.158Z,10.15
2023-02-14T10:09:25.227Z,9.23
2023-02-14T10:10:42.366Z,9.88
2023-02-14T10:11:47.179Z,9.05
2023-02-14T10:12:57.076Z,8.43
2023-02-14T10:14:09.001Z,8.68
2023-02-14T10:15:17.855Z,9.05
2023-02-14T10:16:27.574Z,8.82
2023-02-14T10:18:01.684Z,9.15
2023-02-14T10:19:22.941Z,8.10
2023-02-14T10:20:30.919Z,8.50
2023-02-14T10:21:47.717Z,8.30
2023-02-14T10:23:16.665Z,8.63
2023-02-14T10:24:37.668Z,9.18
2023-02-14T10:26:46.664Z,8.70
2023-02-14T10:27:49.759Z,8.68
2023-02-14T10:28:54.334Z,8.95
2023-02-14T10:29:56.968Z,9.48
2023-02-14T10:31:20.929Z,9.35
2023-02-14T10:32:40.440Z,9.18
2023-02-14T10:33:51.530Z,10.40
2023-02-14T10:34:56.788Z,9.82
2023-02-14T10:36:21.608Z,9.68
2023-02-14T10:37:50.173Z,8.65
2023-02-14T10:39:26.059Z,9.23
2023-02-14T10:40:34.510Z,8.52
2023-02-14T10:41:50.607Z,8.15
2023-02-14T10:43:11.362Z,8.15
2023-02-14T10:44:25.428Z,7.82
2023-02-14T10:45:48.017Z,7.32
2023-02-14T10:47:05.643Z,7.82
2023-02-14T10:48:23.006Z,8.60
2023-02-14T10:49:40.103Z,8.48
2023-02-14T10:51:12.811Z,7.50
2023-02-14T10:52:24.251Z,7.65
2023-02-14T10:53:41.622Z,9.20
2023-02-14T10:54:53.090Z,7.20
2023-02-14T10:56:07.276Z,9.02
2023-02-14T10:57:36.795Z,9.35
2023-02-14T10:58:40.551Z,9.32
2023-02-14T10:59:57.312Z,10.30
2023-02-14T11:01:01.628Z,8.77
2023-02-14T11:02:05.121Z,8.90
2023-02-14T11:03:09.524Z,8.98
2023-02-14T11:04:14.296Z,9.30
2023-02-14T11:05:35.870Z,9.82
2023-02-14T11:06:38.437Z,9.13
2023-02-14T11:07:40.823Z,8.20
2023-02-14T11:08:43.282Z,8.77
2023-02-14T11:09:45.895Z,8.07
2023-02-14T11:10:48.528Z,7.97
2023-02-14T11:11:56.065Z,7.85
2023-02-14T11:12:58.813Z,7.82
2023-02-14T11:15:35.492Z,7.90
2023-02-14T11:16:38.014Z,8.65
2023-02-14T11:17:42.261Z,8.68
2023-02-14T11:18:45.060Z,8.60
2023-02-14T11:20:06.553Z,10.05
2023-02-14T11:21:12.085Z,9.98
2023-02-14T11:22:31.561Z,10.50
2023-02-14T11:23:52.356Z,10.65
2023-02-14T11:25:06.946Z,9.82
2023-02-14T11:26:22.702Z,10.50
2023-02-14T11:27:25.188Z,10.80
2023-02-14T11:28:28.472Z,9.70
2023-02-14T11:29:39.631Z,9.80
2023-02-14T11:30:45.607Z,9.77
2023-02-14T11:31:48.401Z,10.43
2023-02-14T11:32:56.370Z,9.30
2023-02-14T11:33:59.516Z,10.55
2023-02-14T11:35:05.239Z,10.43
2023-02-14T11:36:13.583Z,10.57
2023-02-14T11:37:27.907Z,10.32
2023-02-14T11:38:36.698Z,10.40
2023-02-14T11:39:40.296Z,10.98
2023-02-14T11:40:42.864Z,11.15
2023-02-14T11:41:53.768Z,10.75
2023-02-14T11:43:13.324Z,11.57
2023-02-14T11:44:23.714Z,10.65
2023-02-14T11:45:35.624Z,11.70
2023-02-14T11:46:52.185Z,10.52
2023-02-14T11:48:22.398Z,10.40
2023-02-14T11:49:35.657Z,10.90
2023-02-14T11:50:39.246Z,10.77
2023-02-14T11:51:48.100Z,10.48
2023-02-14T11:52:56.631Z,10.90
2023-02-14T11:54:05.480Z,10.43
2023-02-14T11:55:08.002Z,10.55
2023-02-14T11:56:10.608Z,10.10
2023-02-14T11:57:22.188Z,11.65
2023-02-14T11:58:30.547Z,12.55
2023-02-14T11:59:38.856Z,11.20
2023-02-14T12:00:41.780Z,11.68
2023-02-14T12:01:45.984Z,11.18
2023-02-14T12:02:50.356Z,10.77
2023-02-14T12:03:55.027Z,10.68
2023-02-14T12:05:00.821Z,10.30
2023-02-14T12:06:03.315Z,10.07
2023-02-14T12:07:16.470Z,10.55
2023-02-14T12:08:25.120Z,9.48
2023-02-14T12:09:30.333Z,9.40
2023-02-14T12:10:35.401Z,9.13
2023-02-14T12:11:38.217Z,8.88
2023-02-14T12:12:48.637Z,7.95
2023-02-14T12:13:58.144Z,8.95
2023-02-14T12:15:24.122Z,7.50
2023-02-14T12:16:38.565Z,6.90
2023-02-14T12:17:41.965Z,7.18
2023-02-14T12:19:00.129Z,8.02
2023-02-14T12:20:09.315Z,8.07
2023-02-14T12:21:23.681Z,8.65
2023-02-14T12:22:52.276Z,8.00
2023-02-14T12:24:29.940Z,8.70
2023-02-14T12:26:00.918Z,8.65
2023-02-14T12:28:13.642Z,8.82
2023-02-14T12:29:30.505Z,9.05
2023-02-14T12:30:34.867Z,9.38
2023-02-14T12:31:37.429Z,10.05
2023-02-14T12:32:53.655Z,9.88
2023-02-14T12:33:56.658Z,10.00
2023-02-14T12:35:06.306Z,10.18
2023-02-14T12:36:41.039Z,9.57
2023-02-14T12:38:04.398Z,10.20
2023-02-14T12:39:32.049Z,10.77
2023-02-14T12:41:03.872Z,9.18
2023-02-14T12:42:21.587Z,8.65
2023-02-14T12:43:50.754Z,9.30
2023-02-14T12:45:18.001Z,8.88
2023-02-14T12:46:41.906Z,8.10
2023-02-14T12:47:56.830Z,7.97
2023-02-14T12:49:08.082Z,9.43
2023-02-14T12:50:29.883Z,8.50
2023-02-14T12:51:54.675Z,8.93
2023-02-14T12:53:32.403Z,9.25
2023-02-14T12:54:37.893Z,8.45
2023-02-14T12:56:06.925Z,7.85
2023-02-14T12:58:03.270Z,8.13
2023-02-14T12:59:38.237Z,9.45
2023-02-14T13:00:55.510Z,9.45
2023-02-14T13:02:35.242Z,9.38
2023-02-14T13:03:55.996Z,8.68
2023-02-14T13:06:28.456Z,8.45
2023-02-14T13:07:49.077Z,7.60
2023-02-14T13:09:07.509Z,8.43
2023-02-14T13:10:34.244Z,8.07
2023-02-14T13:11:46.174Z,8.35
2023-02-14T13:13:18.317Z,8.45
2023-02-14T13:14:44.880Z,7.63
2023-02-14T13:15:59.301Z,8.68
2023-02-14T13:17:18.637Z,8.50
2023-02-14T13:18:36.306Z,7.95
2023-02-14T13:19:44.919Z,7.45
2023-02-14T13:20:56.150Z,7.78
2023-02-14T13:21:59.930Z,7.95
2023-02-14T13:23:13.852Z,8.55
2023-02-14T13:24:25.781Z,9.27
2023-02-14T13:25:35.096Z,9.85
2023-02-14T13:26:40.305Z,10.43
2023-02-14T13:27:42.880Z,10.05
2023-02-14T13:28:55.995Z,9.18
2023-02-14T13:30:04.355Z,8.77
2023-02-14T13:31:07.009Z,9.38
2023-02-14T13:32:14.187Z,8.90
2023-02-14T13:33:36.587Z,8.63
2023-02-14T13:34:43.114Z,7.18
2023-02-14T13:35:46.047Z,8.93
2023-02-14T13:36:48.769Z,9.98
2023-02-14T13:38:00.870Z,9.25
2023-02-14T13:39:03.925Z,9.20
2023-02-14T13:40:17.886Z,8.77
2023-02-14T13:41:21.303Z,8.77
2023-02-14T13:42:49.004Z,9.07
2023-02-14T13:43:58.298Z,9.23
2023-02-14T13:45:00.712Z,8.52
2023-02-14T13:46:03.630Z,9.88
2023-02-14T13:47:07.140Z,8.75
2023-02-14T13:48:18.035Z,9.15
2023-02-14T13:49:24.511Z,8.32
2023-02-14T13:50:27.347Z,8.68
2023-02-14T13:51:50.675Z,10.15
2023-02-14T13:52:54.788Z,9.23
2023-02-14T13:53:57.298Z,10.43
2023-02-14T13:55:08.857Z,11.90
2023-02-14T13:56:16.906Z,10.30
2023-02-14T13:57:34.089Z,9.75
2023-02-14T13:58:36.683Z,8.73
2023-02-14T13:59:39.254Z,9.20
2023-02-14T14:00:46.987Z,8.00
2023-02-14T14:01:50.936Z,8.30
2023-02-14T14:02:55.142Z,9.13
2023-02-14T14:04:01.221Z,8.63
2023-02-14T14:05:43.747Z,8.55
2023-02-14T14:07:35.851Z,8.73
2023-02-14T14:08:40.557Z,7.20
2023-02-14T14:09:43.190Z,7.88
2023-02-14T14:10:48.514Z,8.13
2023-02-14T14:11:51.368Z,7.95
2023-02-14T14:12:53.895Z,7.95
2023-02-14T14:14:01.686Z,8.15
2023-02-14T14:15:07.275Z,8.52
2023-02-14T14:16:28.182Z,7.82
2023-02-14T14:18:38.537Z,9.10
2023-02-14T14:19:43.842Z,9.20
2023-02-14T14:20:52.419Z,9.55
2023-02-14T14:22:02.164Z,8.95
2023-02-14T14:23:35.406Z,8.40
2023-02-14T14:24:39.432Z,8.68
2023-02-14T14:25:42.746Z,9.40
2023-02-14T14:26:47.978Z,9.95
2023-02-14T14:27:50.796Z,10.80
2023-02-14T14:28:54.427Z,9.82
2023-02-14T14:30:32.181Z,8.90
2023-02-14T14:31:34.849Z,9.88
2023-02-14T14:32:38.604Z,10.18
2023-02-14T14:33:41.055Z,10.45
2023-02-14T14:34:50.230Z,9.80
2023-02-14T14:35:54.533Z,10.27
2023-02-14T14:37:18.254Z,11.27
2023-02-14T14:38:21.058Z,10.73
2023-02-14T14:39:31.817Z,11.82
2023-02-14T14:41:39.581Z,10.77
2023-02-14T14:42:43.406Z,10.02
2023-02-14T14:43:47.371Z,10.57
2023-02-14T14:44:53.303Z,11.38
2023-02-14T14:45:57.629Z,10.93
2023-02-14T14:47:00.637Z,9.50
2023-02-14T14:48:10.199Z,10.25
2023-02-14T14:49:13.238Z,10.68
2023-02-14T14:50:35.961Z,10.25
2023-02-14T14:51:39.002Z,9.60
2023-02-14T14:52:48.848Z,9.88
2023-02-14T14:53:57.595Z,9.63
2023-02-14T14:55:01.061Z,9.05
2023-02-14T14:56:04.180Z,9.90
2023-02-14T14:57:07.316Z,8.20
2023-02-14T14:58:35.387Z,10.15
2023-02-14T14:59:39.713Z,10.18
2023-02-14T15:00:51.795Z,10.88
2023-02-14T15:01:54.587Z,10.07
2023-02-14T15:03:11.565Z,9.40
2023-02-14T15:04:28.531Z,9.50
2023-02-14T15:05:42.391Z,10.00
2023-02-14T15:06:46.178Z,11.60
2023-02-14T15:07:48.719Z,11.30
2023-02-14T15:08:51.905Z,10.80
2023-02-14T15:09:54.350Z,11.18
2023-02-14T15:11:42.699Z,10.38
2023-02-14T15:13:03.754Z,10.65